createdAt,value
2022-11-20T00:01:59.885Z,93.50
2022-11-20T00:04:30.770Z,93.80
2022-11-20T00:07:01.423Z,94.10
2022-11-20T00:09:32.211Z,93.60
2022-11-20T00:12:02.904Z,94.30
2022-11-20T00:14:33.405Z,93.90
2022-11-20T00:17:05.344Z,94.20
2022-11-20T00:19:36.047Z,94.90
2022-11-20T00:22:09.217Z,93.70
2022-11-20T00:24:44.383Z,93.50
2022-11-20T00:27:15.637Z,95.20
2022-11-20T00:29:46.116Z,95.10
2022-11-20T00:32:16.842Z,94.20
2022-11-20T00:34:47.514Z,94.20
2022-11-20T00:37:18.163Z,93.90
2022-11-20T00:40:28.729Z,94.50
2022-11-20T00:42:59.566Z,94.10
2022-11-20T00:45:30.406Z,93.60
2022-11-20T00:48:01.420Z,94.40
2022-11-20T00:50:35.216Z,94.00
2022-11-20T00:53:06.044Z,93.50
2022-11-20T00:55:36.606Z,93.30
2022-11-20T00:58:11.586Z,93.30
2022-11-20T01:01:16.657Z,93.50
2022-11-20T01:03:50.647Z,93.60
2022-11-20T01:06:22.764Z,93.80
2022-11-20T01:08:55.877Z,93.60
2022-11-20T01:11:38.174Z,93.70
2022-11-20T01:16:59.308Z,93.20
2022-11-20T01:22:13.268Z,93.30
2022-11-20T01:24:43.631Z,94.50
2022-11-20T01:27:13.920Z,94.70
2022-11-20T01:29:44.605Z,94.60
2022-11-20T01:32:15.981Z,94.60
2022-11-20T01:34:47.410Z,94.00
2022-11-20T01:37:19.711Z,93.90
2022-11-20T01:39:50.404Z,93.40
2022-11-20T01:42:44.266Z,93.50
2022-11-20T01:45:55.517Z,93.70
2022-11-20T01:48:29.113Z,93.80
2022-11-20T01:54:08.014Z,94.00
2022-11-20T01:57:03.749Z,94.70
2022-11-20T01:59:34.298Z,93.80
2022-11-20T02:02:05.036Z,94.90
2022-11-20T02:04:57.057Z,93.50
2022-11-20T02:07:28.050Z,93.40
2022-11-20T02:09:59.100Z,93.40
2022-11-20T02:12:47.967Z,93.90
2022-11-20T02:15:18.843Z,93.60
2022-11-20T02:17:49.685Z,93.80
2022-11-20T02:20:20.483Z,93.40
2022-11-20T02:23:04.279Z,93.20
2022-11-20T02:25:38.719Z,93.40
2022-11-20T02:28:09.536Z,93.80
2022-11-20T02:30:40.097Z,93.40
2022-11-20T02:33:11.702Z,93.40
2022-11-20T02:35:48.197Z,93.70
2022-11-20T02:41:02.484Z,93.20
2022-11-20T02:43:33.328Z,93.20
2022-11-20T02:46:04.331Z,93.10
2022-11-20T02:48:34.720Z,93.90
2022-11-20T02:51:05.208Z,93.20
2022-11-20T02:53:37.477Z,93.90
2022-11-20T02:56:09.979Z,93.20
2022-11-20T02:58:40.610Z,93.50
2022-11-20T03:01:12.245Z,93.80
2022-11-20T03:03:42.714Z,93.60
2022-11-20T03:06:14.690Z,93.30
2022-11-20T03:11:33.616Z,93.60
2022-11-20T03:14:08.059Z,94.30
2022-11-20T03:19:45.185Z,93.10
2022-11-20T03:22:15.988Z,92.90
2022-11-20T03:25:08.589Z,92.90
2022-11-20T03:27:59.969Z,93.20
2022-11-20T03:30:31.019Z,93.20
2022-11-20T03:33:02.400Z,93.00
2022-11-20T03:35:52.564Z,93.70
2022-11-20T03:38:23.010Z,93.10
2022-11-20T03:41:19.197Z,93.00
2022-11-20T03:44:00.986Z,93.40
2022-11-20T03:46:32.388Z,93.80
2022-11-20T03:49:22.938Z,93.40
2022-11-20T03:51:54.650Z,93.30
2022-11-20T03:54:25.278Z,93.10
2022-11-20T03:56:55.926Z,92.80
2022-11-20T03:59:31.709Z,92.80
2022-11-20T04:02:02.395Z,92.80
2022-11-20T04:04:33.095Z,92.70
2022-11-20T04:07:07.822Z,92.70
2022-11-20T04:09:38.401Z,92.70
2022-11-20T04:12:08.982Z,92.60
2022-11-20T04:14:39.701Z,92.60
2022-11-20T04:17:10.458Z,92.50
2022-11-20T04:19:41.142Z,92.60
2022-11-20T04:22:13.763Z,92.60
2022-11-20T04:24:44.695Z,92.60
2022-11-20T04:27:15.639Z,93.00
2022-11-20T04:29:46.216Z,92.60
2022-11-20T04:32:16.984Z,92.60
2022-11-20T04:34:47.614Z,92.50
2022-11-20T04:37:18.526Z,92.50
2022-11-20T04:39:49.290Z,92.70
2022-11-20T04:42:31.661Z,93.20
2022-11-20T04:45:02.531Z,92.70
2022-11-20T04:47:33.656Z,93.40
2022-11-20T04:50:04.345Z,93.00
2022-11-20T04:52:34.833Z,93.10
2022-11-20T04:55:06.866Z,93.00
2022-11-20T04:57:37.850Z,93.40
2022-11-20T05:00:12.229Z,93.20
2022-11-20T05:02:44.558Z,93.00
2022-11-20T05:05:15.312Z,92.70
2022-11-20T05:07:45.681Z,92.70
2022-11-20T05:10:17.501Z,92.50
2022-11-20T05:12:47.919Z,92.50
2022-11-20T05:15:21.726Z,92.60
2022-11-20T05:17:53.349Z,93.00
2022-11-20T05:20:28.747Z,93.70
2022-11-20T05:23:02.651Z,92.70
2022-11-20T05:25:32.849Z,93.70
2022-11-20T05:28:03.733Z,92.90
2022-11-20T05:30:35.600Z,93.60
2022-11-20T05:33:07.182Z,93.90
2022-11-20T05:35:38.140Z,93.20
2022-11-20T05:38:09.028Z,93.70
2022-11-20T05:40:41.389Z,93.50
2022-11-20T05:43:17.930Z,92.80
2022-11-20T05:46:26.510Z,93.00
2022-11-20T05:49:03.988Z,93.30
2022-11-20T05:51:36.928Z,93.00
2022-11-20T05:54:07.588Z,92.70
2022-11-20T05:56:40.997Z,92.60
2022-11-20T05:59:11.530Z,92.60
2022-11-20T06:01:42.528Z,92.50
2022-11-20T06:04:13.401Z,92.40
2022-11-20T06:07:16.584Z,92.40
2022-11-20T06:09:47.922Z,92.30
2022-11-20T06:12:21.255Z,92.40
2022-11-20T06:14:51.923Z,92.70
2022-11-20T06:17:26.316Z,92.30
2022-11-20T06:19:56.751Z,92.30
2022-11-20T06:22:33.334Z,92.30
2022-11-20T06:25:06.936Z,92.90
2022-11-20T06:27:37.501Z,92.40
2022-11-20T06:30:08.743Z,92.80
2022-11-20T06:32:39.305Z,93.00
2022-11-20T06:35:11.731Z,93.00
2022-11-20T06:37:43.577Z,92.40
2022-11-20T06:40:15.028Z,93.20
2022-11-20T06:42:45.811Z,94.30
2022-11-20T06:45:16.500Z,92.70
2022-11-20T06:47:47.087Z,93.40
2022-11-20T06:50:18.106Z,93.20
2022-11-20T06:53:10.617Z,93.50
2022-11-20T06:56:09.364Z,92.80
2022-11-20T06:58:39.889Z,92.60
2022-11-20T07:01:13.656Z,92.70
2022-11-20T07:03:43.922Z,93.10
2022-11-20T07:06:14.770Z,92.50
2022-11-20T07:08:45.678Z,92.50
2022-11-20T07:11:25.015Z,92.80
2022-11-20T07:13:55.545Z,92.70
2022-11-20T07:16:27.098Z,92.50
2022-11-20T07:18:58.000Z,92.90
2022-11-20T07:21:28.548Z,92.80
2022-11-20T07:24:00.915Z,92.60
2022-11-20T07:26:31.462Z,93.00
2022-11-20T07:29:02.132Z,93.10
2022-11-20T07:31:53.413Z,92.80
2022-11-20T07:34:43.827Z,92.70
2022-11-20T07:37:14.563Z,92.50
2022-11-20T07:39:47.252Z,93.00
2022-11-20T07:42:18.334Z,92.80
2022-11-20T07:44:53.738Z,92.80
2022-11-20T07:47:25.529Z,92.50
2022-11-20T07:52:40.900Z,92.80
2022-11-20T07:55:14.458Z,92.70
2022-11-20T07:57:47.905Z,92.60
2022-11-20T08:00:18.637Z,92.40
2022-11-20T08:02:50.229Z,93.40
2022-11-20T08:05:22.273Z,92.70
2022-11-20T08:07:52.989Z,92.50
2022-11-20T08:11:24.207Z,92.70
2022-11-20T08:14:12.816Z,92.90
2022-11-20T08:16:47.410Z,92.60
2022-11-20T08:19:20.145Z,92.70
2022-11-20T08:21:51.780Z,92.70
2022-11-20T08:24:46.325Z,92.40
2022-11-20T08:27:16.818Z,92.30
2022-11-20T08:29:48.091Z,92.50
2022-11-20T08:32:18.749Z,92.80
2022-11-20T08:34:49.570Z,92.30
2022-11-20T08:37:21.694Z,92.30
2022-11-20T08:39:53.354Z,92.20
2022-11-20T08:42:24.120Z,92.20
2022-11-20T08:48:04.623Z,92.10
2022-11-20T08:50:35.299Z,92.10
2022-11-20T08:53:07.680Z,92.10
2022-11-20T08:55:41.851Z,92.10
2022-11-20T08:58:15.153Z,92.10
2022-11-20T09:00:48.527Z,92.10
2022-11-20T09:03:22.090Z,92.00
2022-11-20T09:06:01.719Z,92.00
2022-11-20T09:08:32.806Z,92.00
2022-11-20T09:11:03.200Z,91.90
2022-11-20T09:13:34.621Z,91.90
2022-11-20T09:16:08.995Z,92.00
2022-11-20T09:18:41.015Z,92.00
2022-11-20T09:21:16.483Z,92.00
2022-11-20T09:26:32.443Z,92.00
2022-11-20T09:29:02.976Z,91.90
2022-11-20T09:31:33.431Z,92.00
2022-11-20T09:34:04.248Z,92.20
2022-11-20T09:36:34.867Z,92.00
2022-11-20T09:39:08.331Z,92.10
2022-11-20T09:41:58.313Z,92.20
2022-11-20T09:45:24.116Z,92.20
2022-11-20T09:48:33.697Z,92.30
2022-11-20T09:51:13.919Z,92.00
2022-11-20T09:54:09.385Z,92.00
2022-11-20T09:57:02.576Z,92.00
2022-11-20T09:59:49.617Z,92.00
2022-11-20T10:02:22.999Z,92.00
2022-11-20T10:05:19.006Z,92.00
2022-11-20T10:08:26.819Z,92.00
2022-11-20T10:11:42.689Z,91.90
2022-11-20T10:14:16.952Z,91.90
2022-11-20T10:17:27.380Z,91.90
2022-11-20T10:20:25.034Z,91.90
2022-11-20T10:23:07.422Z,91.90
2022-11-20T10:25:54.813Z,91.90
2022-11-20T10:28:40.000Z,91.90
2022-11-20T10:31:17.458Z,91.90
2022-11-20T10:34:11.000Z,91.90
2022-11-20T10:36:55.259Z,91.80
2022-11-20T10:39:38.543Z,91.80
2022-11-20T10:42:21.974Z,91.80
2022-11-20T10:45:06.528Z,91.80
2022-11-20T10:47:38.227Z,92.00
2022-11-20T10:50:22.167Z,92.10
2022-11-20T10:53:06.534Z,91.90
2022-11-20T10:55:49.608Z,92.00
2022-11-20T10:58:33.764Z,92.00
2022-11-20T11:01:25.599Z,92.00
2022-11-20T11:03:57.896Z,92.00
2022-11-20T11:06:45.459Z,92.10
2022-11-20T11:09:25.024Z,92.10
2022-11-20T11:11:57.017Z,92.00
2022-11-20T11:14:27.539Z,92.00
2022-11-20T11:17:00.362Z,92.00
2022-11-20T11:19:30.815Z,92.10
2022-11-20T11:22:01.682Z,92.40
2022-11-20T11:24:48.263Z,92.00
2022-11-20T11:27:39.875Z,92.10
2022-11-20T11:30:22.466Z,92.10
2022-11-20T11:32:54.089Z,92.20
2022-11-20T11:35:26.371Z,92.30
2022-11-20T11:38:16.328Z,92.00
2022-11-20T11:40:51.114Z,92.50
2022-11-20T11:43:57.217Z,92.10
2022-11-20T11:46:31.177Z,92.10
2022-11-20T11:49:03.188Z,92.30
2022-11-20T11:51:55.509Z,92.20
2022-11-20T11:54:31.078Z,92.10
2022-11-20T11:57:21.491Z,92.10
2022-11-20T12:00:14.411Z,92.10
2022-11-20T12:02:50.629Z,92.10
2022-11-20T12:05:28.858Z,92.20
2022-11-20T12:08:31.190Z,92.30
2022-11-20T12:11:17.412Z,92.20
2022-11-20T12:13:48.103Z,92.20
2022-11-20T12:16:22.227Z,92.60
2022-11-20T12:18:54.326Z,92.40
2022-11-20T12:21:34.404Z,92.20
2022-11-20T12:24:04.872Z,92.10
2022-11-20T12:26:41.883Z,92.40
2022-11-20T12:32:36.354Z,92.30
2022-11-20T12:35:45.403Z,92.20
2022-11-20T12:38:56.344Z,92.20
2022-11-20T12:42:15.360Z,92.40
2022-11-20T12:45:07.279Z,92.40
2022-11-20T12:47:40.223Z,92.20
2022-11-20T12:50:53.186Z,92.20
2022-11-20T12:54:18.548Z,92.20
2022-11-20T12:57:08.950Z,92.10
2022-11-20T13:03:19.039Z,92.10
2022-11-20T13:06:24.042Z,92.00
2022-11-20T13:09:01.451Z,92.10
2022-11-20T13:12:02.344Z,92.20
2022-11-20T13:14:51.507Z,92.20
2022-11-20T13:17:27.589Z,92.20
2022-11-20T13:20:01.017Z,92.10
2022-11-20T13:23:02.628Z,92.10
2022-11-20T13:25:48.665Z,92.10
2022-11-20T13:28:25.202Z,92.10
2022-11-20T13:30:58.105Z,92.10
2022-11-20T13:33:37.728Z,92.10
2022-11-20T13:36:23.863Z,92.00
2022-11-20T13:38:56.231Z,92.10
2022-11-20T13:41:40.064Z,92.00
2022-11-20T13:44:39.583Z,92.00
2022-11-20T13:47:40.182Z,92.00
2022-11-20T13:50:12.854Z,92.00
2022-11-20T13:53:08.767Z,92.00
2022-11-20T13:55:54.221Z,92.00
2022-11-20T13:58:45.752Z,92.10
2022-11-20T14:01:25.861Z,92.20
2022-11-20T14:04:06.138Z,92.10
2022-11-20T14:06:44.805Z,92.10
2022-11-20T14:09:32.636Z,92.10
2022-11-20T14:12:16.970Z,92.10
2022-11-20T14:15:39.240Z,92.10
2022-11-20T14:18:24.095Z,92.10
2022-11-20T14:20:54.868Z,92.10
2022-11-20T14:23:51.935Z,92.10
2022-11-20T14:26:22.856Z,92.10
2022-11-20T14:28:54.104Z,92.10
2022-11-20T14:31:29.097Z,92.00
2022-11-20T14:34:00.369Z,92.10
2022-11-20T14:36:33.067Z,92.10
2022-11-20T14:39:06.492Z,92.50
2022-11-20T14:41:37.151Z,92.10
2022-11-20T14:44:15.154Z,92.10
2022-11-20T14:46:46.845Z,92.10
2022-11-20T14:49:18.340Z,92.10
2022-11-20T14:51:48.794Z,92.10
2022-11-20T14:54:28.022Z,92.10
2022-11-20T14:57:25.656Z,92.10
2022-11-20T15:00:19.826Z,92.60
2022-11-20T15:02:54.667Z,92.20
2022-11-20T15:05:29.226Z,92.20
2022-11-20T15:08:13.273Z,92.20
2022-11-20T15:11:01.440Z,92.20
2022-11-20T15:13:41.999Z,92.20
2022-11-20T15:16:24.609Z,92.20
2022-11-20T15:18:56.066Z,92.10
2022-11-20T15:21:28.149Z,92.20
2022-11-20T15:24:01.529Z,92.10
2022-11-20T15:26:33.886Z,92.10
2022-11-20T15:29:04.749Z,92.10
2022-11-20T15:31:35.745Z,92.10
2022-11-20T15:37:20.475Z,92.20
2022-11-20T15:39:52.861Z,92.30
2022-11-20T15:42:23.360Z,92.20
2022-11-20T15:44:53.661Z,92.20
2022-11-20T15:47:41.425Z,92.10
2022-11-20T15:50:19.995Z,92.10
2022-11-20T15:52:50.525Z,92.10
2022-11-20T15:55:20.957Z,92.10
2022-11-20T15:58:16.878Z,92.10
2022-11-20T16:00:47.709Z,92.10
2022-11-20T16:03:20.267Z,92.20
2022-11-20T16:05:51.652Z,92.10
2022-11-20T16:08:24.633Z,92.10
2022-11-20T16:10:55.679Z,92.10
2022-11-20T16:13:44.547Z,92.10
2022-11-20T16:16:36.694Z,92.20
2022-11-20T16:19:07.426Z,92.20
2022-11-20T16:21:39.640Z,92.20
2022-11-20T16:24:11.899Z,92.20
2022-11-20T16:26:43.316Z,92.20
2022-11-20T16:29:16.520Z,92.20
2022-11-20T16:32:08.301Z,92.10
2022-11-20T16:34:38.787Z,92.10
2022-11-20T16:37:09.724Z,92.10
2022-11-20T16:39:40.529Z,92.20
2022-11-20T16:42:16.229Z,92.10
2022-11-20T16:44:49.500Z,92.20
2022-11-20T16:47:20.494Z,92.10
2022-11-20T16:49:51.035Z,92.10
2022-11-20T16:52:21.338Z,92.10
2022-11-20T16:54:51.714Z,92.10
2022-11-20T16:57:23.110Z,92.10
2022-11-20T16:59:57.794Z,92.10
2022-11-20T17:02:32.582Z,92.10
2022-11-20T17:05:03.451Z,92.10
2022-11-20T17:07:37.057Z,92.10
2022-11-20T17:10:15.897Z,92.10
2022-11-20T17:12:47.476Z,92.10
2022-11-20T17:15:18.554Z,92.10
2022-11-20T17:17:49.486Z,92.10
2022-11-20T17:20:22.982Z,92.10
2022-11-20T17:22:53.570Z,92.40
2022-11-20T17:25:24.204Z,92.20
2022-11-20T17:27:55.855Z,92.20
2022-11-20T17:30:26.354Z,92.20
2022-11-20T17:32:56.907Z,92.10
2022-11-20T17:35:27.772Z,92.10
2022-11-20T17:37:59.807Z,92.20
2022-11-20T17:43:35.955Z,92.20
2022-11-20T17:46:18.284Z,92.30
2022-11-20T17:48:50.201Z,92.50
2022-11-20T17:51:41.882Z,92.30
2022-11-20T17:54:13.612Z,92.60
2022-11-20T17:57:02.692Z,92.30
2022-11-20T17:59:54.370Z,92.30
2022-11-20T18:02:24.887Z,92.20
2022-11-20T18:04:55.688Z,92.20
2022-11-20T18:07:26.863Z,92.20
2022-11-20T18:09:57.663Z,92.20
2022-11-20T18:12:28.426Z,92.20
2022-11-20T18:14:59.316Z,92.20
2022-11-20T18:17:49.931Z,92.20
2022-11-20T18:20:40.506Z,92.30
2022-11-20T18:23:35.478Z,92.20
2022-11-20T18:26:05.912Z,92.20
2022-11-20T18:28:40.142Z,92.20
2022-11-20T18:31:11.701Z,92.20
2022-11-20T18:33:42.669Z,92.20
2022-11-20T18:36:25.748Z,92.20
2022-11-20T18:38:58.771Z,92.30
2022-11-20T18:41:49.602Z,92.20
2022-11-20T18:44:43.670Z,92.20
2022-11-20T18:50:03.592Z,92.20
2022-11-20T18:52:42.472Z,92.20
2022-11-20T18:55:14.171Z,92.50
2022-11-20T18:57:45.017Z,92.30
2022-11-20T19:00:16.031Z,92.20
2022-11-20T19:02:46.493Z,92.30
2022-11-20T19:05:17.717Z,92.20
2022-11-20T19:07:49.751Z,92.20
2022-11-20T19:10:25.804Z,92.30
2022-11-20T19:12:57.296Z,92.20
2022-11-20T19:15:27.878Z,92.30
2022-11-20T19:18:00.255Z,92.20
2022-11-20T19:20:32.095Z,92.20
2022-11-20T19:23:23.568Z,92.20
2022-11-20T19:25:55.287Z,92.50
2022-11-20T19:28:26.055Z,92.10
2022-11-20T19:31:24.255Z,92.10
2022-11-20T19:33:59.776Z,92.20
2022-11-20T19:36:39.114Z,92.20
2022-11-20T19:39:13.353Z,92.20
2022-11-20T19:42:04.034Z,92.10
2022-11-20T19:48:07.121Z,92.10
2022-11-20T19:50:28.656Z,92.10
2022-11-20T19:52:59.295Z,92.10
2022-11-20T19:55:30.210Z,92.40
2022-11-20T19:58:01.071Z,92.20
2022-11-20T20:00:32.974Z,92.30
2022-11-20T20:03:04.211Z,92.40
2022-11-20T20:05:36.550Z,92.30
2022-11-20T20:08:07.608Z,92.20
2022-11-20T20:10:38.816Z,92.20
2022-11-20T20:13:09.774Z,92.20
2022-11-20T20:15:42.827Z,92.30
2022-11-20T20:18:13.480Z,92.20
2022-11-20T20:20:44.304Z,92.20
2022-11-20T20:23:14.965Z,92.20
2022-11-20T20:25:50.701Z,92.20
2022-11-20T20:28:21.346Z,92.20
2022-11-20T20:31:16.349Z,92.20
2022-11-20T20:33:47.362Z,92.10
2022-11-20T20:36:20.053Z,92.50
2022-11-20T20:38:53.591Z,92.10
2022-11-20T20:41:26.411Z,92.20
2022-11-20T20:44:15.317Z,92.10
2022-11-20T20:46:46.430Z,92.10
2022-11-20T20:49:17.858Z,92.20
2022-11-20T20:51:48.597Z,92.20
2022-11-20T20:54:18.990Z,92.10
2022-11-20T20:56:55.638Z,92.10
2022-11-20T20:59:26.536Z,92.20
2022-11-20T21:01:57.558Z,92.10
2022-11-20T21:04:29.157Z,92.10
2022-11-20T21:07:20.355Z,92.20
2022-11-20T21:09:50.939Z,92.20
2022-11-20T21:12:44.201Z,92.20
2022-11-20T21:15:14.804Z,92.10
2022-11-20T21:17:45.789Z,92.10
2022-11-20T21:20:34.891Z,92.10
2022-11-20T21:23:25.469Z,92.10
2022-11-20T21:28:44.920Z,92.10
2022-11-20T21:31:23.170Z,92.10
2022-11-20T21:33:55.540Z,92.10
2022-11-20T21:36:28.519Z,92.30
2022-11-20T21:39:00.619Z,92.10
2022-11-20T21:41:52.743Z,92.30
2022-11-20T21:44:31.088Z,92.30
2022-11-20T21:47:03.826Z,92.20
2022-11-20T21:49:34.871Z,92.30
2022-11-20T21:52:25.238Z,92.20
2022-11-20T21:54:56.225Z,92.20
2022-11-20T21:57:26.762Z,92.20
2022-11-20T21:59:57.473Z,92.30
2022-11-20T22:02:28.020Z,92.40
2022-11-20T22:04:58.615Z,92.30
2022-11-20T22:07:29.270Z,92.20
2022-11-20T22:10:03.209Z,92.20
2022-11-20T22:13:20.599Z,92.10
2022-11-20T22:16:12.824Z,92.10
2022-11-20T22:19:01.397Z,92.10
2022-11-20T22:21:32.478Z,92.10
2022-11-20T22:24:03.460Z,92.10
2022-11-20T22:26:40.448Z,92.10
2022-11-20T22:29:18.961Z,92.10
2022-11-20T22:31:55.943Z,92.10
2022-11-20T22:34:26.979Z,92.10
2022-11-20T22:36:57.605Z,92.10
2022-11-20T22:40:09.561Z,92.00
2022-11-20T22:42:40.092Z,92.10
2022-11-20T22:45:11.145Z,92.00
2022-11-20T22:47:41.898Z,92.00
2022-11-20T22:50:12.483Z,92.00
2022-11-20T22:52:42.984Z,92.10
2022-11-20T22:55:16.270Z,92.00
2022-11-20T22:57:47.446Z,92.10
2022-11-20T23:00:18.841Z,92.10
2022-11-20T23:02:50.833Z,92.20
2022-11-20T23:05:21.508Z,92.10
2022-11-20T23:07:52.425Z,92.10
2022-11-20T23:11:04.388Z,92.10
2022-11-20T23:13:35.102Z,92.10
2022-11-20T23:16:10.889Z,92.10
2022-11-20T23:18:42.274Z,92.10
2022-11-20T23:21:14.992Z,92.10
2022-11-20T23:23:50.225Z,92.10
2022-11-20T23:26:23.215Z,92.10
2022-11-20T23:28:56.356Z,92.10
2022-11-20T23:31:28.516Z,92.10
2022-11-20T23:34:00.077Z,92.10
2022-11-20T23:36:30.958Z,92.10
2022-11-20T23:39:01.887Z,92.10
2022-11-20T23:41:32.777Z,92.10
2022-11-20T23:44:03.649Z,92.10
2022-11-20T23:46:34.108Z,92.10
2022-11-20T23:49:04.895Z,92.00
2022-11-20T23:51:56.473Z,92.00
2022-11-20T23:54:28.113Z,92.00
2022-11-20T23:57:02.091Z,92.10
2022-11-20T23:59:32.570Z,92.10
